sensor_id;sensor_type;location;lat;lon;timestamp;P1;durP1;ratioP1;P2;durP2;ratioP2
67162;SDS011;54092;53.088;8.850;2023-09-12T00:00:47;70.47;;;33.38;;
67162;SDS011;54092;53.088;8.850;2023-09-12T00:03:13;64.88;;;31.38;;
67162;SDS011;54092;53.088;8.850;2023-09-12T00:05:38;73.40;;;32.25;;
67162;SDS011;54092;53.088;8.850;2023-09-12T00:08:04;74.30;;;31.20;;
67162;SDS011;54092;53.088;8.850;2023-09-12T00:10:30;66.85;;;31.50;;
67162;SDS011;54092;53.088;8.850;2023-09-12T00:12:56;70.75;;;31.90;;
67162;SDS011;54092;53.088;8.850;2023-09-12T00:15:21;73.63;;;32.83;;
67162;SDS011;54092;53.088;8.850;2023-09-12T00:17:47;78.20;;;33.22;;
67162;SDS011;54092;53.088;8.850;2023-09-12T00:20:15;71.53;;;32.57;;
67162;SDS011;54092;53.088;8.850;2023-09-12T00:22:41;73.13;;;32.97;;
67162;SDS011;54092;53.088;8.850;2023-09-12T00:25:06;68.43;;;33.05;;
67162;SDS011;54092;53.088;8.850;2023-09-12T00:27:32;66.82;;;31.30;;
67162;SDS011;54092;53.088;8.850;2023-09-12T00:29:57;75.07;;;32.80;;
67162;SDS011;54092;53.088;8.850;2023-09-12T00:32:23;75.38;;;33.20;;
67162;SDS011;54092;53.088;8.850;2023-09-12T00:34:48;68.85;;;33.45;;
67162;SDS011;54092;53.088;8.850;2023-09-12T00:37:14;73.45;;;31.92;;
67162;SDS011;54092;53.088;8.850;2023-09-12T00:39:39;68.50;;;31.67;;
67162;SDS011;54092;53.088;8.850;2023-09-12T00:42:05;71.85;;;33.53;;
67162;SDS011;54092;53.088;8.850;2023-09-12T00:44:32;78.25;;;32.58;;
67162;SDS011;54092;53.088;8.850;2023-09-12T00:46:58;69.05;;;32.03;;
67162;SDS011;54092;53.088;8.850;2023-09-12T00:49:25;80.05;;;35.03;;
67162;SDS011;54092;53.088;8.850;2023-09-12T00:51:52;74.80;;;34.33;;
67162;SDS011;54092;53.088;8.850;2023-09-12T00:54:19;75.53;;;33.88;;
67162;SDS011;54092;53.088;8.850;2023-09-12T00:56:45;80.47;;;34.47;;
67162;SDS011;54092;53.088;8.850;2023-09-12T00:59:10;80.75;;;35.42;;
67162;SDS011;54092;53.088;8.850;2023-09-12T01:01:36;80.40;;;35.35;;
67162;SDS011;54092;53.088;8.850;2023-09-12T01:04:02;81.35;;;35.13;;
67162;SDS011;54092;53.088;8.850;2023-09-12T01:06:28;89.10;;;35.67;;
67162;SDS011;54092;53.088;8.850;2023-09-12T01:08:56;83.88;;;37.17;;
67162;SDS011;54092;53.088;8.850;2023-09-12T01:11:22;87.03;;;36.95;;
67162;SDS011;54092;53.088;8.850;2023-09-12T01:13:47;87.28;;;37.40;;
67162;SDS011;54092;53.088;8.850;2023-09-12T01:16:13;96.25;;;39.25;;
67162;SDS011;54092;53.088;8.850;2023-09-12T01:18:38;86.20;;;36.08;;
67162;SDS011;54092;53.088;8.850;2023-09-12T01:21:15;91.25;;;37.00;;
67162;SDS011;54092;53.088;8.850;2023-09-12T01:26:44;87.93;;;36.92;;
67162;SDS011;54092;53.088;8.850;2023-09-12T01:29:24;85.43;;;36.25;;
67162;SDS011;54092;53.088;8.850;2023-09-12T01:31:51;85.45;;;34.25;;
67162;SDS011;54092;53.088;8.850;2023-09-12T01:34:18;89.15;;;36.90;;
67162;SDS011;54092;53.088;8.850;2023-09-12T01:36:44;93.05;;;36.78;;
67162;SDS011;54092;53.088;8.850;2023-09-12T01:39:09;94.05;;;37.83;;
67162;SDS011;54092;53.088;8.850;2023-09-12T01:41:37;86.22;;;36.03;;
67162;SDS011;54092;53.088;8.850;2023-09-12T01:44:05;89.63;;;37.30;;
67162;SDS011;54092;53.088;8.850;2023-09-12T01:46:33;95.30;;;37.85;;
67162;SDS011;54092;53.088;8.850;2023-09-12T01:49:01;96.53;;;40.83;;
67162;SDS011;54092;53.088;8.850;2023-09-12T01:51:29;101.00;;;40.72;;
67162;SDS011;54092;53.088;8.850;2023-09-12T01:53:55;105.38;;;41.67;;
67162;SDS011;54092;53.088;8.850;2023-09-12T01:56:21;109.05;;;42.55;;
67162;SDS011;54092;53.088;8.850;2023-09-12T01:58:48;110.97;;;43.45;;
67162;SDS011;54092;53.088;8.850;2023-09-12T02:01:14;115.35;;;42.30;;
67162;SDS011;54092;53.088;8.850;2023-09-12T02:03:39;110.35;;;42.58;;
67162;SDS011;54092;53.088;8.850;2023-09-12T02:06:05;115.85;;;44.60;;
67162;SDS011;54092;53.088;8.850;2023-09-12T02:08:30;116.35;;;44.15;;
67162;SDS011;54092;53.088;8.850;2023-09-12T02:10:56;114.95;;;42.83;;
67162;SDS011;54092;53.088;8.850;2023-09-12T02:13:21;106.63;;;41.42;;
67162;SDS011;54092;53.088;8.850;2023-09-12T02:15:47;102.15;;;44.28;;
67162;SDS011;54092;53.088;8.850;2023-09-12T02:18:12;117.07;;;42.67;;
67162;SDS011;54092;53.088;8.850;2023-09-12T02:20:40;102.88;;;40.10;;
67162;SDS011;54092;53.088;8.850;2023-09-12T02:23:06;109.47;;;44.03;;
67162;SDS011;54092;53.088;8.850;2023-09-12T02:25:32;114.60;;;45.70;;
67162;SDS011;54092;53.088;8.850;2023-09-12T02:27:57;112.07;;;43.88;;
67162;SDS011;54092;53.088;8.850;2023-09-12T02:30:23;109.28;;;43.00;;
67162;SDS011;54092;53.088;8.850;2023-09-12T02:32:48;117.78;;;43.50;;
67162;SDS011;54092;53.088;8.850;2023-09-12T02:35:14;106.10;;;41.80;;
67162;SDS011;54092;53.088;8.850;2023-09-12T02:37:39;103.03;;;42.38;;
67162;SDS011;54092;53.088;8.850;2023-09-12T02:40:05;103.82;;;40.95;;
67162;SDS011;54092;53.088;8.850;2023-09-12T02:42:32;109.85;;;42.38;;
67162;SDS011;54092;53.088;8.850;2023-09-12T02:44:57;107.70;;;42.10;;
67162;SDS011;54092;53.088;8.850;2023-09-12T02:47:23;94.55;;;40.65;;
67162;SDS011;54092;53.088;8.850;2023-09-12T02:49:48;98.63;;;40.80;;
67162;SDS011;54092;53.088;8.850;2023-09-12T02:52:14;96.13;;;41.95;;
67162;SDS011;54092;53.088;8.850;2023-09-12T02:54:39;92.18;;;41.85;;
67162;SDS011;54092;53.088;8.850;2023-09-12T02:57:05;89.93;;;38.65;;
67162;SDS011;54092;53.088;8.850;2023-09-12T02:59:31;101.03;;;40.33;;
67162;SDS011;54092;53.088;8.850;2023-09-12T03:01:57;102.60;;;41.38;;
67162;SDS011;54092;53.088;8.850;2023-09-12T03:04:24;107.00;;;40.85;;
67162;SDS011;54092;53.088;8.850;2023-09-12T03:06:52;98.07;;;42.40;;
67162;SDS011;54092;53.088;8.850;2023-09-12T03:09:18;93.72;;;40.55;;
67162;SDS011;54092;53.088;8.850;2023-09-12T03:11:44;90.35;;;39.80;;
67162;SDS011;54092;53.088;8.850;2023-09-12T03:14:10;90.10;;;40.03;;
67162;SDS011;54092;53.088;8.850;2023-09-12T03:16:35;94.15;;;40.08;;
67162;SDS011;54092;53.088;8.850;2023-09-12T03:19:02;95.85;;;39.78;;
67162;SDS011;54092;53.088;8.850;2023-09-12T03:21:28;94.50;;;38.72;;
67162;SDS011;54092;53.088;8.850;2023-09-12T03:23:54;92.55;;;39.55;;
67162;SDS011;54092;53.088;8.850;2023-09-12T03:26:19;99.68;;;39.97;;
67162;SDS011;54092;53.088;8.850;2023-09-12T03:28:45;95.60;;;40.28;;
67162;SDS011;54092;53.088;8.850;2023-09-12T03:31:11;95.68;;;40.60;;
67162;SDS011;54092;53.088;8.850;2023-09-12T03:33:39;109.05;;;43.38;;
67162;SDS011;54092;53.088;8.850;2023-09-12T03:36:06;90.35;;;38.80;;
67162;SDS011;54092;53.088;8.850;2023-09-12T03:38:32;98.18;;;41.60;;
67162;SDS011;54092;53.088;8.850;2023-09-12T03:40:58;95.55;;;41.10;;
67162;SDS011;54092;53.088;8.850;2023-09-12T03:43:24;94.28;;;40.33;;
67162;SDS011;54092;53.088;8.850;2023-09-12T03:45:49;97.15;;;41.17;;
67162;SDS011;54092;53.088;8.850;2023-09-12T03:48:15;99.50;;;40.33;;
67162;SDS011;54092;53.088;8.850;2023-09-12T03:50:41;96.05;;;40.17;;
67162;SDS011;54092;53.088;8.850;2023-09-12T03:53:06;92.63;;;39.25;;
67162;SDS011;54092;53.088;8.850;2023-09-12T03:55:32;97.80;;;39.33;;
67162;SDS011;54092;53.088;8.850;2023-09-12T03:57:57;102.55;;;40.50;;
67162;SDS011;54092;53.088;8.850;2023-09-12T04:00:23;96.70;;;39.45;;
67162;SDS011;54092;53.088;8.850;2023-09-12T04:02:48;98.05;;;39.95;;
67162;SDS011;54092;53.088;8.850;2023-09-12T04:05:14;99.13;;;40.22;;
67162;SDS011;54092;53.088;8.850;2023-09-12T04:07:40;100.80;;;40.83;;
67162;SDS011;54092;53.088;8.850;2023-09-12T04:10:05;92.57;;;39.78;;
67162;SDS011;54092;53.088;8.850;2023-09-12T04:12:31;100.95;;;39.33;;
67162;SDS011;54092;53.088;8.850;2023-09-12T04:14:56;104.85;;;41.08;;
67162;SDS011;54092;53.088;8.850;2023-09-12T04:17:22;94.97;;;38.90;;
67162;SDS011;54092;53.088;8.850;2023-09-12T04:19:47;96.30;;;39.83;;
67162;SDS011;54092;53.088;8.850;2023-09-12T04:22:13;88.35;;;38.90;;
67162;SDS011;54092;53.088;8.850;2023-09-12T04:24:38;102.70;;;38.80;;
67162;SDS011;54092;53.088;8.850;2023-09-12T04:27:04;108.15;;;41.65;;
67162;SDS011;54092;53.088;8.850;2023-09-12T04:29:32;98.20;;;39.90;;
67162;SDS011;54092;53.088;8.850;2023-09-12T04:31:59;91.68;;;38.72;;
67162;SDS011;54092;53.088;8.850;2023-09-12T04:34:25;98.63;;;39.47;;
67162;SDS011;54092;53.088;8.850;2023-09-12T04:36:51;103.90;;;40.75;;
67162;SDS011;54092;53.088;8.850;2023-09-12T04:39:17;97.25;;;39.65;;
67162;SDS011;54092;53.088;8.850;2023-09-12T04:41:43;94.63;;;40.03;;
67162;SDS011;54092;53.088;8.850;2023-09-12T04:44:08;88.60;;;37.63;;
67162;SDS011;54092;53.088;8.850;2023-09-12T04:46:34;91.22;;;38.90;;
67162;SDS011;54092;53.088;8.850;2023-09-12T04:49:00;89.53;;;36.15;;
67162;SDS011;54092;53.088;8.850;2023-09-12T04:51:25;90.88;;;37.40;;
67162;SDS011;54092;53.088;8.850;2023-09-12T04:53:52;82.45;;;37.15;;
67162;SDS011;54092;53.088;8.850;2023-09-12T04:56:17;100.88;;;37.85;;
67162;SDS011;54092;53.088;8.850;2023-09-12T04:58:43;90.50;;;37.08;;
67162;SDS011;54092;53.088;8.850;2023-09-12T05:01:09;87.65;;;39.05;;
67162;SDS011;54092;53.088;8.850;2023-09-12T05:03:34;88.97;;;37.72;;
67162;SDS011;54092;53.088;8.850;2023-09-12T05:06:00;93.18;;;38.28;;
67162;SDS011;54092;53.088;8.850;2023-09-12T05:08:26;90.88;;;37.72;;
67162;SDS011;54092;53.088;8.850;2023-09-12T05:10:51;91.18;;;37.03;;
67162;SDS011;54092;53.088;8.850;2023-09-12T05:13:17;85.90;;;37.10;;
67162;SDS011;54092;53.088;8.850;2023-09-12T05:15:43;84.88;;;37.45;;
67162;SDS011;54092;53.088;8.850;2023-09-12T05:18:09;82.85;;;36.75;;
67162;SDS011;54092;53.088;8.850;2023-09-12T05:20:35;90.85;;;36.28;;
67162;SDS011;54092;53.088;8.850;2023-09-12T05:23:01;89.95;;;36.65;;
67162;SDS011;54092;53.088;8.850;2023-09-12T05:25:27;83.85;;;36.42;;
67162;SDS011;54092;53.088;8.850;2023-09-12T05:27:53;87.22;;;37.40;;
67162;SDS011;54092;53.088;8.850;2023-09-12T05:30:19;89.82;;;36.97;;
67162;SDS011;54092;53.088;8.850;2023-09-12T05:32:44;81.38;;;34.85;;
67162;SDS011;54092;53.088;8.850;2023-09-12T05:35:10;78.28;;;35.00;;
67162;SDS011;54092;53.088;8.850;2023-09-12T05:37:35;85.35;;;38.10;;
67162;SDS011;54092;53.088;8.850;2023-09-12T05:40:01;89.57;;;36.22;;
67162;SDS011;54092;53.088;8.850;2023-09-12T05:42:28;81.80;;;35.38;;
67162;SDS011;54092;53.088;8.850;2023-09-12T05:44:53;79.43;;;34.97;;
67162;SDS011;54092;53.088;8.850;2023-09-12T05:47:19;80.82;;;35.83;;
67162;SDS011;54092;53.088;8.850;2023-09-12T05:49:45;84.78;;;36.45;;
67162;SDS011;54092;53.088;8.850;2023-09-12T05:52:11;86.05;;;35.80;;
67162;SDS011;54092;53.088;8.850;2023-09-12T05:54:37;82.32;;;37.55;;
67162;SDS011;54092;53.088;8.850;2023-09-12T05:57:04;74.95;;;34.65;;
67162;SDS011;54092;53.088;8.850;2023-09-12T05:59:30;78.78;;;35.80;;
67162;SDS011;54092;53.088;8.850;2023-09-12T06:01:55;87.95;;;38.03;;
67162;SDS011;54092;53.088;8.850;2023-09-12T06:04:21;83.70;;;34.95;;
67162;SDS011;54092;53.088;8.850;2023-09-12T06:06:47;81.00;;;35.97;;
67162;SDS011;54092;53.088;8.850;2023-09-12T06:09:12;75.85;;;34.53;;
67162;SDS011;54092;53.088;8.850;2023-09-12T06:11:38;80.00;;;36.13;;
67162;SDS011;54092;53.088;8.850;2023-09-12T06:14:04;82.07;;;36.90;;
67162;SDS011;54092;53.088;8.850;2023-09-12T06:16:29;74.50;;;34.67;;
67162;SDS011;54092;53.088;8.850;2023-09-12T06:18:55;76.03;;;35.67;;
67162;SDS011;54092;53.088;8.850;2023-09-12T06:21:21;71.93;;;33.78;;
67162;SDS011;54092;53.088;8.850;2023-09-12T06:23:47;81.88;;;33.35;;
67162;SDS011;54092;53.088;8.850;2023-09-12T06:26:13;77.47;;;34.72;;
67162;SDS011;54092;53.088;8.850;2023-09-12T06:28:39;79.63;;;35.78;;
67162;SDS011;54092;53.088;8.850;2023-09-12T06:31:07;78.55;;;36.05;;
67162;SDS011;54092;53.088;8.850;2023-09-12T06:35:59;71.00;;;32.40;;
67162;SDS011;54092;53.088;8.850;2023-09-12T06:38:25;71.47;;;32.90;;
67162;SDS011;54092;53.088;8.850;2023-09-12T06:40:50;71.25;;;33.95;;
67162;SDS011;54092;53.088;8.850;2023-09-12T06:43:16;66.95;;;33.85;;
67162;SDS011;54092;53.088;8.850;2023-09-12T06:45:42;71.32;;;34.58;;
67162;SDS011;54092;53.088;8.850;2023-09-12T06:48:08;76.70;;;35.78;;
67162;SDS011;54092;53.088;8.850;2023-09-12T06:50:34;74.40;;;33.75;;
67162;SDS011;54092;53.088;8.850;2023-09-12T06:52:59;67.05;;;32.10;;
67162;SDS011;54092;53.088;8.850;2023-09-12T06:55:25;71.38;;;33.20;;
67162;SDS011;54092;53.088;8.850;2023-09-12T06:57:50;69.03;;;34.72;;
67162;SDS011;54092;53.088;8.850;2023-09-12T07:00:16;69.10;;;32.35;;
67162;SDS011;54092;53.088;8.850;2023-09-12T07:02:42;69.72;;;34.53;;
67162;SDS011;54092;53.088;8.850;2023-09-12T07:05:08;65.90;;;32.50;;
67162;SDS011;54092;53.088;8.850;2023-09-12T07:07:33;70.97;;;35.00;;
67162;SDS011;54092;53.088;8.850;2023-09-12T07:09:59;66.20;;;32.08;;
67162;SDS011;54092;53.088;8.850;2023-09-12T07:12:25;63.83;;;32.08;;
67162;SDS011;54092;53.088;8.850;2023-09-12T07:14:53;68.18;;;33.22;;
67162;SDS011;54092;53.088;8.850;2023-09-12T07:17:18;62.92;;;33.63;;
67162;SDS011;54092;53.088;8.850;2023-09-12T07:19:44;60.42;;;31.52;;
67162;SDS011;54092;53.088;8.850;2023-09-12T07:22:09;69.85;;;33.28;;
67162;SDS011;54092;53.088;8.850;2023-09-12T07:24:35;65.43;;;32.30;;
67162;SDS011;54092;53.088;8.850;2023-09-12T07:27:00;63.13;;;32.28;;
67162;SDS011;54092;53.088;8.850;2023-09-12T07:29:26;65.07;;;34.08;;
67162;SDS011;54092;53.088;8.850;2023-09-12T07:31:55;58.80;;;30.52;;
67162;SDS011;54092;53.088;8.850;2023-09-12T07:34:21;57.72;;;31.10;;
67162;SDS011;54092;53.088;8.850;2023-09-12T07:36:46;57.83;;;29.95;;
67162;SDS011;54092;53.088;8.850;2023-09-12T07:39:12;60.33;;;30.85;;
67162;SDS011;54092;53.088;8.850;2023-09-12T07:41:38;60.17;;;29.65;;
67162;SDS011;54092;53.088;8.850;2023-09-12T07:44:03;58.05;;;30.45;;
67162;SDS011;54092;53.088;8.850;2023-09-12T07:46:30;56.50;;;30.60;;
67162;SDS011;54092;53.088;8.850;2023-09-12T07:48:56;55.38;;;29.90;;
67162;SDS011;54092;53.088;8.850;2023-09-12T07:51:21;49.83;;;28.08;;
67162;SDS011;54092;53.088;8.850;2023-09-12T07:53:47;56.60;;;31.23;;
67162;SDS011;54092;53.088;8.850;2023-09-12T07:56:13;54.92;;;30.08;;
67162;SDS011;54092;53.088;8.850;2023-09-12T07:58:39;58.03;;;31.08;;
67162;SDS011;54092;53.088;8.850;2023-09-12T08:01:07;55.97;;;30.27;;
67162;SDS011;54092;53.088;8.850;2023-09-12T08:03:35;51.53;;;27.40;;
67162;SDS011;54092;53.088;8.850;2023-09-12T08:06:02;46.40;;;28.77;;
67162;SDS011;54092;53.088;8.850;2023-09-12T08:08:28;53.38;;;28.40;;
67162;SDS011;54092;53.088;8.850;2023-09-12T08:10:54;48.80;;;26.52;;
67162;SDS011;54092;53.088;8.850;2023-09-12T08:13:20;47.30;;;26.10;;
67162;SDS011;54092;53.088;8.850;2023-09-12T08:15:45;44.75;;;25.27;;
67162;SDS011;54092;53.088;8.850;2023-09-12T08:18:11;45.90;;;26.33;;
67162;SDS011;54092;53.088;8.850;2023-09-12T08:20:37;47.30;;;25.83;;
67162;SDS011;54092;53.088;8.850;2023-09-12T08:23:03;43.20;;;25.45;;
67162;SDS011;54092;53.088;8.850;2023-09-12T08:25:29;45.38;;;24.23;;
67162;SDS011;54092;53.088;8.850;2023-09-12T08:27:54;42.75;;;24.00;;
67162;SDS011;54092;53.088;8.850;2023-09-12T08:30:20;46.30;;;24.67;;
67162;SDS011;54092;53.088;8.850;2023-09-12T08:32:45;41.13;;;23.63;;
67162;SDS011;54092;53.088;8.850;2023-09-12T08:35:11;43.33;;;24.38;;
67162;SDS011;54092;53.088;8.850;2023-09-12T08:37:38;39.75;;;23.20;;
67162;SDS011;54092;53.088;8.850;2023-09-12T08:40:05;41.30;;;23.73;;
67162;SDS011;54092;53.088;8.850;2023-09-12T08:42:34;39.72;;;23.13;;
67162;SDS011;54092;53.088;8.850;2023-09-12T08:45:06;38.33;;;22.35;;
67162;SDS011;54092;53.088;8.850;2023-09-12T08:47:37;39.03;;;22.80;;
67162;SDS011;54092;53.088;8.850;2023-09-12T08:50:06;38.47;;;22.45;;
67162;SDS011;54092;53.088;8.850;2023-09-12T08:52:34;39.33;;;22.10;;
67162;SDS011;54092;53.088;8.850;2023-09-12T08:55:00;37.15;;;20.75;;
67162;SDS011;54092;53.088;8.850;2023-09-12T08:57:26;34.47;;;22.15;;
67162;SDS011;54092;53.088;8.850;2023-09-12T08:59:52;33.97;;;21.25;;
67162;SDS011;54092;53.088;8.850;2023-09-12T09:02:18;30.42;;;18.83;;
67162;SDS011;54092;53.088;8.850;2023-09-12T09:04:45;31.52;;;19.08;;
67162;SDS011;54092;53.088;8.850;2023-09-12T09:07:12;32.83;;;19.35;;
67162;SDS011;54092;53.088;8.850;2023-09-12T09:09:39;29.95;;;18.65;;
67162;SDS011;54092;53.088;8.850;2023-09-12T09:12:08;29.83;;;18.85;;
67162;SDS011;54092;53.088;8.850;2023-09-12T09:14:35;27.98;;;17.92;;
67162;SDS011;54092;53.088;8.850;2023-09-12T09:17:01;29.70;;;19.70;;
67162;SDS011;54092;53.088;8.850;2023-09-12T09:19:43;32.53;;;20.40;;
67162;SDS011;54092;53.088;8.850;2023-09-12T09:22:10;31.75;;;19.80;;
67162;SDS011;54092;53.088;8.850;2023-09-12T09:24:35;32.63;;;20.15;;
67162;SDS011;54092;53.088;8.850;2023-09-12T09:27:01;34.45;;;20.23;;
67162;SDS011;54092;53.088;8.850;2023-09-12T09:29:27;32.95;;;20.00;;
67162;SDS011;54092;53.088;8.850;2023-09-12T09:31:58;34.08;;;20.67;;
67162;SDS011;54092;53.088;8.850;2023-09-12T09:34:25;35.97;;;21.42;;
67162;SDS011;54092;53.088;8.850;2023-09-12T09:36:54;36.35;;;21.48;;
67162;SDS011;54092;53.088;8.850;2023-09-12T09:39:26;33.10;;;20.55;;
67162;SDS011;54092;53.088;8.850;2023-09-12T09:41:54;40.08;;;22.85;;
67162;SDS011;54092;53.088;8.850;2023-09-12T09:44:25;40.15;;;23.15;;
67162;SDS011;54092;53.088;8.850;2023-09-12T09:46:55;39.20;;;23.73;;
67162;SDS011;54092;53.088;8.850;2023-09-12T09:49:27;42.05;;;23.25;;
67162;SDS011;54092;53.088;8.850;2023-09-12T09:51:55;38.17;;;23.02;;
67162;SDS011;54092;53.088;8.850;2023-09-12T09:54:23;40.22;;;23.45;;
67162;SDS011;54092;53.088;8.850;2023-09-12T09:56:50;40.40;;;23.73;;
67162;SDS011;54092;53.088;8.850;2023-09-12T09:59:20;41.60;;;23.27;;
67162;SDS011;54092;53.088;8.850;2023-09-12T10:01:48;43.23;;;24.63;;
67162;SDS011;54092;53.088;8.850;2023-09-12T10:04:18;44.03;;;23.92;;
67162;SDS011;54092;53.088;8.850;2023-09-12T10:06:44;41.78;;;24.25;;
67162;SDS011;54092;53.088;8.850;2023-09-12T10:09:11;41.58;;;23.33;;
67162;SDS011;54092;53.088;8.850;2023-09-12T10:11:39;42.92;;;23.95;;
67162;SDS011;54092;53.088;8.850;2023-09-12T10:14:06;45.17;;;24.20;;
67162;SDS011;54092;53.088;8.850;2023-09-12T10:16:33;39.45;;;23.05;;
67162;SDS011;54092;53.088;8.850;2023-09-12T10:21:48;40.92;;;22.83;;
67162;SDS011;54092;53.088;8.850;2023-09-12T10:24:17;38.13;;;22.52;;
67162;SDS011;54092;53.088;8.850;2023-09-12T10:26:46;39.77;;;23.53;;
67162;SDS011;54092;53.088;8.850;2023-09-12T10:29:15;38.72;;;22.92;;
67162;SDS011;54092;53.088;8.850;2023-09-12T10:31:41;39.92;;;22.85;;
67162;SDS011;54092;53.088;8.850;2023-09-12T10:34:07;35.88;;;21.33;;
67162;SDS011;54092;53.088;8.850;2023-09-12T10:36:36;37.00;;;22.00;;
67162;SDS011;54092;53.088;8.850;2023-09-12T10:39:04;35.50;;;22.02;;
67162;SDS011;54092;53.088;8.850;2023-09-12T10:41:32;35.72;;;21.08;;
67162;SDS011;54092;53.088;8.850;2023-09-12T10:44:01;37.95;;;21.85;;
67162;SDS011;54092;53.088;8.850;2023-09-12T10:46:34;34.90;;;20.80;;
67162;SDS011;54092;53.088;8.850;2023-09-12T10:49:02;36.33;;;21.35;;
67162;SDS011;54092;53.088;8.850;2023-09-12T10:51:31;32.95;;;21.13;;
67162;SDS011;54092;53.088;8.850;2023-09-12T10:53:57;37.30;;;22.15;;
67162;SDS011;54092;53.088;8.850;2023-09-12T10:56:22;34.92;;;20.85;;
67162;SDS011;54092;53.088;8.850;2023-09-12T11:01:29;35.13;;;20.50;;
67162;SDS011;54092;53.088;8.850;2023-09-12T11:03:58;34.78;;;20.45;;
67162;SDS011;54092;53.088;8.850;2023-09-12T11:06:45;33.65;;;20.40;;
67162;SDS011;54092;53.088;8.850;2023-09-12T11:14:28;36.17;;;20.75;;
67162;SDS011;54092;53.088;8.850;2023-09-12T11:19:48;34.75;;;21.33;;
67162;SDS011;54092;53.088;8.850;2023-09-12T11:22:29;32.72;;;20.75;;
67162;SDS011;54092;53.088;8.850;2023-09-12T11:24:56;33.70;;;21.05;;
67162;SDS011;54092;53.088;8.850;2023-09-12T11:27:30;33.75;;;21.40;;
67162;SDS011;54092;53.088;8.850;2023-09-12T11:30:03;39.38;;;22.45;;
67162;SDS011;54092;53.088;8.850;2023-09-12T11:32:32;33.65;;;21.25;;
67162;SDS011;54092;53.088;8.850;2023-09-12T11:35:05;41.17;;;21.48;;
67162;SDS011;54092;53.088;8.850;2023-09-12T11:37:32;35.17;;;22.30;;
67162;SDS011;54092;53.088;8.850;2023-09-12T11:39:58;33.97;;;21.17;;
67162;SDS011;54092;53.088;8.850;2023-09-12T11:42:24;35.05;;;21.02;;
67162;SDS011;54092;53.088;8.850;2023-09-12T11:44:53;34.38;;;21.00;;
67162;SDS011;54092;53.088;8.850;2023-09-12T11:47:19;31.33;;;19.77;;
67162;SDS011;54092;53.088;8.850;2023-09-12T11:49:45;33.47;;;20.27;;
67162;SDS011;54092;53.088;8.850;2023-09-12T11:52:15;29.90;;;18.95;;
67162;SDS011;54092;53.088;8.850;2023-09-12T11:54:44;28.67;;;18.98;;
67162;SDS011;54092;53.088;8.850;2023-09-12T11:57:11;27.92;;;17.63;;
67162;SDS011;54092;53.088;8.850;2023-09-12T11:59:39;26.15;;;17.05;;
67162;SDS011;54092;53.088;8.850;2023-09-12T12:02:06;27.48;;;18.38;;
67162;SDS011;54092;53.088;8.850;2023-09-12T12:04:32;26.55;;;17.60;;
67162;SDS011;54092;53.088;8.850;2023-09-12T12:06:59;27.65;;;18.15;;
67162;SDS011;54092;53.088;8.850;2023-09-12T12:09:26;28.10;;;18.25;;
67162;SDS011;54092;53.088;8.850;2023-09-12T12:11:52;27.58;;;18.10;;
67162;SDS011;54092;53.088;8.850;2023-09-12T12:14:17;25.73;;;17.63;;
67162;SDS011;54092;53.088;8.850;2023-09-12T12:16:44;24.40;;;16.20;;
67162;SDS011;54092;53.088;8.850;2023-09-12T12:19:11;26.55;;;17.30;;
67162;SDS011;54092;53.088;8.850;2023-09-12T12:21:39;23.20;;;15.73;;
67162;SDS011;54092;53.088;8.850;2023-09-12T12:24:05;23.75;;;16.65;;
67162;SDS011;54092;53.088;8.850;2023-09-12T12:26:33;26.55;;;17.08;;
67162;SDS011;54092;53.088;8.850;2023-09-12T12:29:03;25.75;;;16.90;;
67162;SDS011;54092;53.088;8.850;2023-09-12T12:31:29;25.65;;;16.45;;
67162;SDS011;54092;53.088;8.850;2023-09-12T12:33:55;22.02;;;15.13;;
67162;SDS011;54092;53.088;8.850;2023-09-12T12:36:22;23.42;;;15.30;;
67162;SDS011;54092;53.088;8.850;2023-09-12T12:38:49;23.30;;;15.75;;
67162;SDS011;54092;53.088;8.850;2023-09-12T12:41:15;23.38;;;15.20;;
67162;SDS011;54092;53.088;8.850;2023-09-12T12:43:48;21.75;;;14.38;;
67162;SDS011;54092;53.088;8.850;2023-09-12T12:46:16;24.58;;;15.80;;
67162;SDS011;54092;53.088;8.850;2023-09-12T12:48:45;19.58;;;13.85;;
67162;SDS011;54092;53.088;8.850;2023-09-12T12:51:17;22.52;;;15.10;;
67162;SDS011;54092;53.088;8.850;2023-09-12T12:53:54;22.85;;;14.57;;
67162;SDS011;54092;53.088;8.850;2023-09-12T12:56:22;21.10;;;14.35;;
67162;SDS011;54092;53.088;8.850;2023-09-12T12:58:52;23.30;;;14.00;;
67162;SDS011;54092;53.088;8.850;2023-09-12T13:01:21;17.73;;;12.60;;
67162;SDS011;54092;53.088;8.850;2023-09-12T13:03:47;21.10;;;14.35;;
67162;SDS011;54092;53.088;8.850;2023-09-12T13:06:15;19.48;;;12.57;;
67162;SDS011;54092;53.088;8.850;2023-09-12T13:08:42;17.55;;;11.40;;
67162;SDS011;54092;53.088;8.850;2023-09-12T13:11:09;18.83;;;12.13;;
67162;SDS011;54092;53.088;8.850;2023-09-12T13:13:38;15.88;;;10.98;;
67162;SDS011;54092;53.088;8.850;2023-09-12T13:16:05;16.08;;;11.07;;
67162;SDS011;54092;53.088;8.850;2023-09-12T13:18:34;16.42;;;11.18;;
67162;SDS011;54092;53.088;8.850;2023-09-12T13:21:01;18.30;;;12.98;;
67162;SDS011;54092;53.088;8.850;2023-09-12T13:23:27;17.63;;;11.15;;
67162;SDS011;54092;53.088;8.850;2023-09-12T13:25:53;20.77;;;12.93;;
67162;SDS011;54092;53.088;8.850;2023-09-12T13:28:19;17.45;;;12.20;;
67162;SDS011;54092;53.088;8.850;2023-09-12T13:30:45;19.10;;;12.20;;
67162;SDS011;54092;53.088;8.850;2023-09-12T13:33:11;16.88;;;11.63;;
67162;SDS011;54092;53.088;8.850;2023-09-12T13:35:37;17.77;;;12.05;;
67162;SDS011;54092;53.088;8.850;2023-09-12T13:38:03;17.30;;;10.93;;
67162;SDS011;54092;53.088;8.850;2023-09-12T13:40:35;19.63;;;11.70;;
67162;SDS011;54092;53.088;8.850;2023-09-12T13:43:03;16.88;;;11.88;;
67162;SDS011;54092;53.088;8.850;2023-09-12T13:45:29;16.73;;;11.70;;
67162;SDS011;54092;53.088;8.850;2023-09-12T13:47:54;17.60;;;11.57;;
67162;SDS011;54092;53.088;8.850;2023-09-12T13:50:20;16.38;;;11.25;;
67162;SDS011;54092;53.088;8.850;2023-09-12T13:52:45;19.55;;;11.80;;
67162;SDS011;54092;53.088;8.850;2023-09-12T13:55:11;19.45;;;13.05;;
67162;SDS011;54092;53.088;8.850;2023-09-12T13:57:39;17.53;;;11.10;;
67162;SDS011;54092;53.088;8.850;2023-09-12T14:00:05;16.48;;;11.25;;
67162;SDS011;54092;53.088;8.850;2023-09-12T14:02:31;19.83;;;12.50;;
67162;SDS011;54092;53.088;8.850;2023-09-12T14:04:57;19.13;;;12.15;;
67162;SDS011;54092;53.088;8.850;2023-09-12T14:07:23;17.33;;;12.13;;
67162;SDS011;54092;53.088;8.850;2023-09-12T14:09:48;16.95;;;11.18;;
67162;SDS011;54092;53.088;8.850;2023-09-12T14:12:14;17.08;;;11.65;;
67162;SDS011;54092;53.088;8.850;2023-09-12T14:14:40;16.17;;;11.20;;
67162;SDS011;54092;53.088;8.850;2023-09-12T14:17:06;15.43;;;11.02;;
67162;SDS011;54092;53.088;8.850;2023-09-12T14:19:31;17.48;;;11.18;;
67162;SDS011;54092;53.088;8.850;2023-09-12T14:21:57;15.57;;;10.65;;
67162;SDS011;54092;53.088;8.850;2023-09-12T14:24:22;14.48;;;11.13;;
67162;SDS011;54092;53.088;8.850;2023-09-12T14:26:48;15.68;;;11.05;;
67162;SDS011;54092;53.088;8.850;2023-09-12T14:29:14;19.70;;;12.07;;
67162;SDS011;54092;53.088;8.850;2023-09-12T14:31:40;17.38;;;11.57;;
67162;SDS011;54092;53.088;8.850;2023-09-12T14:34:14;18.15;;;10.73;;
67162;SDS011;54092;53.088;8.850;2023-09-12T14:36:40;16.40;;;11.48;;